»·PEaware :: D-ECCT KBFL-KVCV

D-ECCT :: KBFL-KVCV

FLIGHT INFORMATION

Flight Status: Arrived
Operator: Privately registered:
Germany
More flights under this callsign
Pilot: Markus L. (16128)
Aircraft: PIPER PA-30 TWIN COMANCHE
(PA30)
More flights by this aircraft type
Origin: KBFL Meadows
United States
Destination: KVCV Socal Logistics
United States
More flights between these airports :: More routes between these airports
Route:
File this flight plan on PilotEdge
Remarks:
Altitude:
(Current/Filed)
7,500ft
Speed:
(Current/Filed)
130kts
Departed: 09-Sep-17 01:34 PM
Arrived: 09-Sep-17 02:48 PM
Distance/Time
Traveled:
97nm/1:14
Distance/Time
To Go:
Arrived

Flight Plot

Page will automatically refresh every two minutes.


Map Options




Map Legend


Flown Route
Filed Route
Departure Airport
Arrival Airport
Navaid (VOR, NDB)
Fix

Horizontal Profiles

Position Reports

Time Latitude Longitude Heading Altitude Ground
Speed
09-Sep-17 13:18 35.435715 -119.052051 180 509ft 0kts
09-Sep-17 13:19 35.435715 -119.052051 180 509ft 0kts
09-Sep-17 13:20 35.435715 -119.052051 180 509ft 0kts
09-Sep-17 13:21 35.435715 -119.052051 180 509ft 0kts
09-Sep-17 13:22 35.435715 -119.052051 180 509ft 0kts
09-Sep-17 13:23 35.435715 -119.052051 180 509ft 0kts
09-Sep-17 13:24 35.435715 -119.052051 180 509ft 0kts
09-Sep-17 13:25 35.435715 -119.052051 180 509ft 0kts
09-Sep-17 13:26 35.435715 -119.052051 180 509ft 0kts
09-Sep-17 13:27 35.435715 -119.052051 180 509ft 0kts
09-Sep-17 13:28 35.435715 -119.052051 180 509ft 0kts
09-Sep-17 13:29 35.435715 -119.052051 180 509ft 0kts
09-Sep-17 13:30 35.435715 -119.052051 180 509ft 0kts
09-Sep-17 13:31 35.435715 -119.052051 180 509ft 0kts
09-Sep-17 13:32 35.435715 -119.052051 180 509ft 0kts
09-Sep-17 13:33 35.434606 -119.054474 174 509ft 0kts
09-Sep-17 13:34 35.430695 -119.050175 135 509ft 29kts
09-Sep-17 13:35 35.426388 -119.044964 136 509ft 16kts
09-Sep-17 13:36 35.425676 -119.044792 231 509ft 0kts
09-Sep-17 13:37 35.425676 -119.044792 231 509ft 0kts
09-Sep-17 13:38 35.434673 -119.057188 316 742ft 99kts
09-Sep-17 13:39 35.450890 -119.085776 248 1934ft 119kts
09-Sep-17 13:40 35.426029 -119.099842 140 3072ft 128kts
09-Sep-17 13:41 35.395629 -119.076638 137 4159ft 128kts
09-Sep-17 13:42 35.371268 -119.043940 134 4953ft 129kts
09-Sep-17 13:43 35.352781 -119.007179 120 5757ft 128kts
09-Sep-17 13:44 35.336859 -118.977615 129 6486ft 122kts
09-Sep-17 13:45 35.314388 -118.939070 115 7459ft 121kts
09-Sep-17 13:46 35.297804 -118.903955 128 8264ft 118kts
09-Sep-17 13:47 35.277228 -118.872987 134 9039ft 118kts
09-Sep-17 13:48 35.254049 -118.843087 137 9510ft 133kts
09-Sep-17 13:49 35.231111 -118.815338 138 9509ft 142kts
09-Sep-17 13:50 35.202033 -118.782273 138 9598ft 140kts
09-Sep-17 13:51 35.180311 -118.735347 111 9657ft 148kts
09-Sep-17 13:52 35.169121 -118.696293 110 9658ft 144kts
09-Sep-17 13:53 35.152544 -118.652074 121 9656ft 143kts
09-Sep-17 13:54 35.128415 -118.613524 129 9653ft 143kts
09-Sep-17 13:55 35.100994 -118.577998 132 9652ft 144kts
09-Sep-17 13:56 35.072301 -118.544250 134 9652ft 143kts
09-Sep-17 13:57 35.043020 -118.511210 134 9651ft 143kts
09-Sep-17 13:58 35.013496 -118.478394 135 9651ft 144kts
09-Sep-17 13:59 34.983845 -118.445900 134 9649ft 144kts
09-Sep-17 14:00 34.954084 -118.413328 134 9651ft 144kts
09-Sep-17 14:01 34.924295 -118.380297 141 9599ft 146kts
09-Sep-17 14:02 34.895781 -118.349587 141 9599ft 145kts
09-Sep-17 14:03 34.865654 -118.317335 141 9602ft 146kts
09-Sep-17 14:04 34.835282 -118.284671 141 9601ft 146kts
09-Sep-17 14:05 34.804845 -118.251826 141 9601ft 146kts
09-Sep-17 14:06 34.774523 -118.219041 141 9645ft 142kts
09-Sep-17 14:07 34.744257 -118.186314 141 9194ft 144kts
09-Sep-17 14:08 34.714471 -118.154238 141 8645ft 143kts
09-Sep-17 14:09 34.684642 -118.122091 140 8099ft 143kts
09-Sep-17 14:10 34.654483 -118.090289 143 7566ft 144kts
09-Sep-17 14:11 34.625275 -118.058417 106 7013ft 144kts
09-Sep-17 14:12 34.614368 -118.014248 101 7391ft 134kts
09-Sep-17 14:13 34.604694 -117.969204 107 7559ft 145kts
09-Sep-17 14:14 34.592108 -117.922611 109 7588ft 146kts
09-Sep-17 14:15 34.578305 -117.875887 106 7582ft 146kts
09-Sep-17 14:16 34.565659 -117.829247 104 7577ft 145kts
09-Sep-17 14:17 34.553155 -117.782846 105 7576ft 144kts
09-Sep-17 14:18 34.546018 -117.735187 99 7579ft 143kts
09-Sep-17 14:19 34.537054 -117.687998 100 7576ft 144kts
09-Sep-17 14:20 34.526498 -117.640871 102 7576ft 144kts
09-Sep-17 14:21 34.515324 -117.593711 99 7577ft 145kts
09-Sep-17 14:22 34.529913 -117.547764 69 7606ft 150kts
09-Sep-17 14:23 34.546805 -117.501453 72 7605ft 150kts
09-Sep-17 14:24 34.559586 -117.453424 84 7533ft 145kts
09-Sep-17 14:25 34.562330 -117.407391 93 7524ft 132kts
09-Sep-17 14:26 34.561291 -117.364812 97 7515ft 116kts
09-Sep-17 14:27 34.558736 -117.326733 99 7527ft 113kts
09-Sep-17 14:28 34.555425 -117.288551 100 7535ft 114kts
09-Sep-17 14:29 34.551858 -117.249968 100 7536ft 115kts
09-Sep-17 14:30 34.548175 -117.211404 100 7536ft 115kts
09-Sep-17 14:31 34.544231 -117.172899 109 7505ft 116kts
09-Sep-17 14:32 34.540708 -117.137559 42 7513ft 132kts
09-Sep-17 14:33 34.578973 -117.137053 3 7160ft 141kts
09-Sep-17 14:34 34.618987 -117.139958 4 6589ft 146kts
09-Sep-17 14:35 34.659603 -117.142768 3 6032ft 146kts
09-Sep-17 14:36 34.700211 -117.147438 347 5481ft 152kts
09-Sep-17 14:37 34.736206 -117.170816 335 5256ft 133kts
09-Sep-17 14:38 34.764674 -117.196325 325 5257ft 125kts
09-Sep-17 14:39 34.789278 -117.225582 307 5291ft 125kts
09-Sep-17 14:40 34.803637 -117.264428 280 5276ft 132kts
09-Sep-17 14:41 34.803606 -117.309457 273 5280ft 134kts
09-Sep-17 14:42 34.802552 -117.354927 262 5276ft 135kts
09-Sep-17 14:43 34.783512 -117.358552 100 5274ft 82kts
09-Sep-17 14:44 34.773477 -117.342659 206 5196ft 94kts
09-Sep-17 14:45 34.748792 -117.351879 165 4618ft 94kts
09-Sep-17 14:46 34.723142 -117.346182 165 4099ft 92kts
09-Sep-17 14:47 34.698913 -117.340945 164 4123ft 88kts
09-Sep-17 14:48 34.674787 -117.335791 164 4124ft 87kts
09-Sep-17 14:49 34.650894 -117.330360 163 4128ft 85kts
09-Sep-17 14:50 34.626714 -117.339057 206 3663ft 101kts
09-Sep-17 14:51 34.605987 -117.360205 215 3086ft 99kts
09-Sep-17 14:52 34.591365 -117.377337 226 2887ft 34kts
09-Sep-17 14:53 34.589847 -117.377819 135 2887ft 0kts
09-Sep-17 14:54 34.589847 -117.377819 135 2887ft 0kts
09-Sep-17 14:55 34.589164 -117.377289 164 2887ft 18kts
09-Sep-17 14:56 34.587684 -117.375638 321 2887ft 0kts
09-Sep-17 14:57 34.587688 -117.375641 322 2887ft 0kts
09-Sep-17 14:58 34.587688 -117.375641 322 2887ft 0kts
09-Sep-17 14:59 34.587688 -117.375641 321 2887ft 0kts
09-Sep-17 15:00 34.587688 -117.375641 321 2887ft 0kts
09-Sep-17 15:01 34.587688 -117.375641 322 2887ft 0kts
09-Sep-17 15:02 34.587688 -117.375641 321 2887ft 0kts

Navigation Log

Ident Type
Flight plan parsing failed, navigation log unavailable